Landfall Village, Minnesota
Current Conditions -  °F | °C
As of 3:31 PM on Friday 24 Oct 2014 (Local Time) from K21D Reporting Station
Overcast Overcast  
Wind Chill: 61°   Ceiling: 1900
Heat Index: 61°   Visibility: 10mi
Dew Point: 55°   Wind: 8mph
Humidity: 82%   Direction: 200°SSW
Pressure: 29.84"   Gusts: NA
Location:  44.9915°N, 92.9659°W
Report Text: K21D 242031Z AUTO 20007KT 10SM OVC019 16/13 A2984 RMK AO2
Loading
Personal Weather Stations






























Interactive Weather Map
Tropical Storm Tracking
New forecast layout! Learn more

10-Day Weather Forecast

Advertisements
Track Severe Weather on mobile